sensor_id;sensor_type;location;lat;lon;timestamp;P1;durP1;ratioP1;P2;durP2;ratioP2
21337;SDS011;10827;50.878;4.382;2022-08-19T00:01:40;30.73;;;20.92;;
21337;SDS011;10827;50.878;4.382;2022-08-19T00:04:08;30.30;;;21.00;;
21337;SDS011;10827;50.878;4.382;2022-08-19T00:06:37;31.23;;;22.45;;
21337;SDS011;10827;50.878;4.382;2022-08-19T00:09:05;34.13;;;23.10;;
21337;SDS011;10827;50.878;4.382;2022-08-19T00:11:32;32.75;;;22.25;;
21337;SDS011;10827;50.878;4.382;2022-08-19T00:13:59;34.83;;;23.95;;
21337;SDS011;10827;50.878;4.382;2022-08-19T00:16:25;35.72;;;23.27;;
21337;SDS011;10827;50.878;4.382;2022-08-19T00:18:51;32.90;;;24.25;;
21337;SDS011;10827;50.878;4.382;2022-08-19T00:21:18;39.78;;;26.30;;
21337;SDS011;10827;50.878;4.382;2022-08-19T00:23:44;41.03;;;25.25;;
21337;SDS011;10827;50.878;4.382;2022-08-19T00:26:10;44.45;;;27.58;;
21337;SDS011;10827;50.878;4.382;2022-08-19T00:28:36;36.50;;;26.02;;
21337;SDS011;10827;50.878;4.382;2022-08-19T00:31:03;41.17;;;27.42;;
21337;SDS011;10827;50.878;4.382;2022-08-19T00:33:30;45.80;;;28.05;;
21337;SDS011;10827;50.878;4.382;2022-08-19T00:36:00;48.00;;;29.40;;
21337;SDS011;10827;50.878;4.382;2022-08-19T00:38:28;47.47;;;30.08;;
21337;SDS011;10827;50.878;4.382;2022-08-19T00:40:54;49.33;;;30.70;;
21337;SDS011;10827;50.878;4.382;2022-08-19T00:43:20;52.15;;;30.95;;
21337;SDS011;10827;50.878;4.382;2022-08-19T00:45:48;56.28;;;32.20;;
21337;SDS011;10827;50.878;4.382;2022-08-19T00:48:15;65.90;;;35.72;;
21337;SDS011;10827;50.878;4.382;2022-08-19T00:50:42;63.58;;;34.35;;
21337;SDS011;10827;50.878;4.382;2022-08-19T00:53:12;60.70;;;34.17;;
21337;SDS011;10827;50.878;4.382;2022-08-19T00:55:40;61.22;;;35.00;;
21337;SDS011;10827;50.878;4.382;2022-08-19T00:58:11;69.47;;;37.28;;
21337;SDS011;10827;50.878;4.382;2022-08-19T01:00:39;61.53;;;35.92;;
21337;SDS011;10827;50.878;4.382;2022-08-19T01:03:15;66.75;;;36.97;;
21337;SDS011;10827;50.878;4.382;2022-08-19T01:05:44;62.92;;;32.95;;
21337;SDS011;10827;50.878;4.382;2022-08-19T01:08:11;68.15;;;38.05;;
21337;SDS011;10827;50.878;4.382;2022-08-19T01:10:43;61.85;;;36.40;;
21337;SDS011;10827;50.878;4.382;2022-08-19T01:13:14;65.43;;;36.20;;
21337;SDS011;10827;50.878;4.382;2022-08-19T01:15:46;71.03;;;36.92;;
21337;SDS011;10827;50.878;4.382;2022-08-19T01:18:17;66.18;;;37.17;;
21337;SDS011;10827;50.878;4.382;2022-08-19T01:20:44;59.65;;;34.08;;
21337;SDS011;10827;50.878;4.382;2022-08-19T01:23:10;65.47;;;37.25;;
21337;SDS011;10827;50.878;4.382;2022-08-19T01:25:42;67.75;;;36.53;;
21337;SDS011;10827;50.878;4.382;2022-08-19T01:28:16;65.32;;;35.55;;
21337;SDS011;10827;50.878;4.382;2022-08-19T01:30:53;57.28;;;33.30;;
21337;SDS011;10827;50.878;4.382;2022-08-19T01:33:19;54.33;;;32.28;;
21337;SDS011;10827;50.878;4.382;2022-08-19T01:35:46;55.58;;;32.50;;
21337;SDS011;10827;50.878;4.382;2022-08-19T01:38:25;62.00;;;34.47;;
21337;SDS011;10827;50.878;4.382;2022-08-19T01:40:56;55.72;;;32.72;;
21337;SDS011;10827;50.878;4.382;2022-08-19T01:43:23;54.92;;;32.65;;
21337;SDS011;10827;50.878;4.382;2022-08-19T01:45:49;57.67;;;32.88;;
21337;SDS011;10827;50.878;4.382;2022-08-19T01:48:16;60.50;;;34.53;;
21337;SDS011;10827;50.878;4.382;2022-08-19T01:50:41;58.67;;;33.38;;
21337;SDS011;10827;50.878;4.382;2022-08-19T01:53:10;53.22;;;29.58;;
21337;SDS011;10827;50.878;4.382;2022-08-19T01:55:37;50.05;;;29.77;;
21337;SDS011;10827;50.878;4.382;2022-08-19T01:58:06;50.08;;;26.60;;
21337;SDS011;10827;50.878;4.382;2022-08-19T02:00:37;50.92;;;29.17;;
21337;SDS011;10827;50.878;4.382;2022-08-19T02:03:04;48.10;;;28.20;;
21337;SDS011;10827;50.878;4.382;2022-08-19T02:05:31;43.88;;;27.20;;
21337;SDS011;10827;50.878;4.382;2022-08-19T02:07:57;49.70;;;27.15;;
21337;SDS011;10827;50.878;4.382;2022-08-19T02:10:23;43.15;;;26.77;;
21337;SDS011;10827;50.878;4.382;2022-08-19T02:12:49;44.58;;;26.52;;
21337;SDS011;10827;50.878;4.382;2022-08-19T02:15:17;43.53;;;23.63;;
21337;SDS011;10827;50.878;4.382;2022-08-19T02:17:47;40.42;;;22.80;;
21337;SDS011;10827;50.878;4.382;2022-08-19T02:20:13;41.45;;;22.63;;
21337;SDS011;10827;50.878;4.382;2022-08-19T02:22:40;33.97;;;20.80;;
21337;SDS011;10827;50.878;4.382;2022-08-19T02:25:07;36.08;;;21.98;;
21337;SDS011;10827;50.878;4.382;2022-08-19T02:27:38;32.80;;;19.90;;
21337;SDS011;10827;50.878;4.382;2022-08-19T02:30:05;40.15;;;21.90;;
21337;SDS011;10827;50.878;4.382;2022-08-19T02:32:33;35.25;;;21.73;;
21337;SDS011;10827;50.878;4.382;2022-08-19T02:34:58;35.80;;;21.83;;
21337;SDS011;10827;50.878;4.382;2022-08-19T02:37:25;39.05;;;23.60;;
21337;SDS011;10827;50.878;4.382;2022-08-19T02:40:11;38.33;;;23.80;;
21337;SDS011;10827;50.878;4.382;2022-08-19T02:42:37;36.50;;;22.45;;
21337;SDS011;10827;50.878;4.382;2022-08-19T02:45:03;33.38;;;21.33;;
21337;SDS011;10827;50.878;4.382;2022-08-19T02:47:30;31.17;;;19.55;;
21337;SDS011;10827;50.878;4.382;2022-08-19T02:49:56;35.53;;;20.55;;
21337;SDS011;10827;50.878;4.382;2022-08-19T02:52:22;32.80;;;19.02;;
21337;SDS011;10827;50.878;4.382;2022-08-19T02:54:48;34.67;;;19.00;;
21337;SDS011;10827;50.878;4.382;2022-08-19T02:57:14;32.97;;;19.77;;
21337;SDS011;10827;50.878;4.382;2022-08-19T02:59:40;32.25;;;20.75;;
21337;SDS011;10827;50.878;4.382;2022-08-19T03:02:06;33.15;;;19.13;;
21337;SDS011;10827;50.878;4.382;2022-08-19T03:04:31;40.63;;;20.27;;
21337;SDS011;10827;50.878;4.382;2022-08-19T03:06:57;35.42;;;21.42;;
21337;SDS011;10827;50.878;4.382;2022-08-19T03:09:23;36.83;;;20.30;;
21337;SDS011;10827;50.878;4.382;2022-08-19T03:11:49;40.03;;;21.37;;
21337;SDS011;10827;50.878;4.382;2022-08-19T03:14:15;40.90;;;22.67;;
21337;SDS011;10827;50.878;4.382;2022-08-19T03:16:48;39.00;;;21.17;;
21337;SDS011;10827;50.878;4.382;2022-08-19T03:19:17;35.97;;;21.07;;
21337;SDS011;10827;50.878;4.382;2022-08-19T03:21:45;41.13;;;22.55;;
21337;SDS011;10827;50.878;4.382;2022-08-19T03:24:11;40.63;;;21.60;;
21337;SDS011;10827;50.878;4.382;2022-08-19T03:26:39;38.70;;;22.80;;
21337;SDS011;10827;50.878;4.382;2022-08-19T03:29:06;38.53;;;17.93;;
21337;SDS011;10827;50.878;4.382;2022-08-19T03:31:34;40.78;;;21.65;;
21337;SDS011;10827;50.878;4.382;2022-08-19T03:34:00;38.58;;;22.25;;
21337;SDS011;10827;50.878;4.382;2022-08-19T03:36:27;38.60;;;21.83;;
21337;SDS011;10827;50.878;4.382;2022-08-19T03:38:55;40.07;;;22.70;;
21337;SDS011;10827;50.878;4.382;2022-08-19T03:41:29;38.80;;;22.03;;
21337;SDS011;10827;50.878;4.382;2022-08-19T03:43:57;37.07;;;19.43;;
21337;SDS011;10827;50.878;4.382;2022-08-19T03:46:24;35.47;;;20.33;;
21337;SDS011;10827;50.878;4.382;2022-08-19T03:48:53;34.77;;;18.70;;
21337;SDS011;10827;50.878;4.382;2022-08-19T03:51:24;39.37;;;21.53;;
21337;SDS011;10827;50.878;4.382;2022-08-19T03:54:02;38.53;;;19.57;;
21337;SDS011;10827;50.878;4.382;2022-08-19T03:56:29;34.63;;;20.90;;
21337;SDS011;10827;50.878;4.382;2022-08-19T03:58:55;36.57;;;19.70;;
21337;SDS011;10827;50.878;4.382;2022-08-19T04:01:23;33.40;;;18.70;;
21337;SDS011;10827;50.878;4.382;2022-08-19T04:03:51;38.63;;;20.07;;
21337;SDS011;10827;50.878;4.382;2022-08-19T04:06:24;38.50;;;20.27;;
21337;SDS011;10827;50.878;4.382;2022-08-19T04:08:52;35.67;;;21.10;;
21337;SDS011;10827;50.878;4.382;2022-08-19T04:11:20;35.17;;;20.13;;
21337;SDS011;10827;50.878;4.382;2022-08-19T04:13:49;40.90;;;18.93;;
21337;SDS011;10827;50.878;4.382;2022-08-19T04:16:18;36.13;;;21.20;;
21337;SDS011;10827;50.878;4.382;2022-08-19T04:18:45;37.63;;;21.23;;
21337;SDS011;10827;50.878;4.382;2022-08-19T04:21:19;34.73;;;17.13;;
21337;SDS011;10827;50.878;4.382;2022-08-19T04:23:46;34.13;;;19.27;;
21337;SDS011;10827;50.878;4.382;2022-08-19T04:26:16;43.20;;;22.07;;
21337;SDS011;10827;50.878;4.382;2022-08-19T04:28:44;34.60;;;19.77;;
21337;SDS011;10827;50.878;4.382;2022-08-19T04:31:15;40.03;;;20.70;;
21337;SDS011;10827;50.878;4.382;2022-08-19T04:33:42;40.70;;;20.37;;
21337;SDS011;10827;50.878;4.382;2022-08-19T04:36:15;40.27;;;20.00;;
21337;SDS011;10827;50.878;4.382;2022-08-19T04:38:45;38.70;;;20.27;;
21337;SDS011;10827;50.878;4.382;2022-08-19T04:41:11;40.07;;;21.60;;
21337;SDS011;10827;50.878;4.382;2022-08-19T04:43:55;41.67;;;20.40;;
21337;SDS011;10827;50.878;4.382;2022-08-19T04:46:21;37.77;;;18.60;;
21337;SDS011;10827;50.878;4.382;2022-08-19T04:48:47;35.67;;;19.57;;
21337;SDS011;10827;50.878;4.382;2022-08-19T04:51:14;31.33;;;17.70;;
21337;SDS011;10827;50.878;4.382;2022-08-19T04:53:40;34.00;;;18.67;;
21337;SDS011;10827;50.878;4.382;2022-08-19T04:56:11;36.83;;;18.00;;
21337;SDS011;10827;50.878;4.382;2022-08-19T04:58:40;36.23;;;18.50;;
21337;SDS011;10827;50.878;4.382;2022-08-19T05:01:08;35.03;;;18.50;;
21337;SDS011;10827;50.878;4.382;2022-08-19T05:03:36;34.70;;;15.57;;
21337;SDS011;10827;50.878;4.382;2022-08-19T05:06:04;31.33;;;14.97;;
21337;SDS011;10827;50.878;4.382;2022-08-19T05:08:32;33.40;;;16.63;;
21337;SDS011;10827;50.878;4.382;2022-08-19T05:11:00;27.83;;;15.93;;
21337;SDS011;10827;50.878;4.382;2022-08-19T05:13:26;33.03;;;16.03;;
21337;SDS011;10827;50.878;4.382;2022-08-19T05:15:56;28.97;;;15.20;;
21337;SDS011;10827;50.878;4.382;2022-08-19T05:18:23;32.67;;;14.97;;
21337;SDS011;10827;50.878;4.382;2022-08-19T05:21:08;33.03;;;15.27;;
21337;SDS011;10827;50.878;4.382;2022-08-19T05:23:54;31.47;;;15.07;;
21337;SDS011;10827;50.878;4.382;2022-08-19T05:26:20;30.43;;;14.23;;
21337;SDS011;10827;50.878;4.382;2022-08-19T05:28:46;31.40;;;15.00;;
21337;SDS011;10827;50.878;4.382;2022-08-19T05:31:12;32.27;;;15.90;;
21337;SDS011;10827;50.878;4.382;2022-08-19T05:33:38;37.53;;;15.83;;
21337;SDS011;10827;50.878;4.382;2022-08-19T05:36:05;31.10;;;17.27;;
21337;SDS011;10827;50.878;4.382;2022-08-19T05:38:33;35.27;;;15.57;;
21337;SDS011;10827;50.878;4.382;2022-08-19T05:41:11;34.10;;;15.97;;
21337;SDS011;10827;50.878;4.382;2022-08-19T05:43:46;34.73;;;16.23;;
21337;SDS011;10827;50.878;4.382;2022-08-19T05:46:18;30.73;;;15.00;;
21337;SDS011;10827;50.878;4.382;2022-08-19T05:48:44;37.50;;;17.70;;
21337;SDS011;10827;50.878;4.382;2022-08-19T05:51:11;32.57;;;15.77;;
21337;SDS011;10827;50.878;4.382;2022-08-19T05:53:37;34.37;;;15.53;;
21337;SDS011;10827;50.878;4.382;2022-08-19T05:56:04;32.63;;;14.87;;
21337;SDS011;10827;50.878;4.382;2022-08-19T05:58:35;32.40;;;15.77;;
21337;SDS011;10827;50.878;4.382;2022-08-19T06:01:03;28.17;;;13.57;;
21337;SDS011;10827;50.878;4.382;2022-08-19T06:03:34;28.03;;;13.03;;
21337;SDS011;10827;50.878;4.382;2022-08-19T06:06:02;26.83;;;13.40;;
21337;SDS011;10827;50.878;4.382;2022-08-19T06:08:30;30.20;;;13.67;;
21337;SDS011;10827;50.878;4.382;2022-08-19T06:10:56;25.77;;;13.40;;
21337;SDS011;10827;50.878;4.382;2022-08-19T06:13:22;25.47;;;12.67;;
21337;SDS011;10827;50.878;4.382;2022-08-19T06:15:48;32.73;;;13.33;;
21337;SDS011;10827;50.878;4.382;2022-08-19T06:18:14;25.07;;;12.10;;
21337;SDS011;10827;50.878;4.382;2022-08-19T06:20:41;22.30;;;11.83;;
21337;SDS011;10827;50.878;4.382;2022-08-19T06:23:07;24.67;;;12.37;;
21337;SDS011;10827;50.878;4.382;2022-08-19T06:25:34;24.67;;;11.43;;
21337;SDS011;10827;50.878;4.382;2022-08-19T06:30:29;25.55;;;11.20;;
21337;SDS011;10827;50.878;4.382;2022-08-19T06:32:55;21.23;;;11.57;;
21337;SDS011;10827;50.878;4.382;2022-08-19T06:35:20;21.40;;;10.83;;
21337;SDS011;10827;50.878;4.382;2022-08-19T06:37:46;25.35;;;11.18;;
21337;SDS011;10827;50.878;4.382;2022-08-19T06:40:12;23.90;;;11.65;;
21337;SDS011;10827;50.878;4.382;2022-08-19T06:42:39;25.38;;;11.07;;
21337;SDS011;10827;50.878;4.382;2022-08-19T06:45:05;19.75;;;10.10;;
21337;SDS011;10827;50.878;4.382;2022-08-19T06:47:33;19.73;;;10.43;;
21337;SDS011;10827;50.878;4.382;2022-08-19T06:49:59;15.93;;;8.88;;
21337;SDS011;10827;50.878;4.382;2022-08-19T06:52:28;22.80;;;10.15;;
21337;SDS011;10827;50.878;4.382;2022-08-19T06:54:55;23.83;;;10.07;;
21337;SDS011;10827;50.878;4.382;2022-08-19T06:57:21;23.83;;;9.88;;
21337;SDS011;10827;50.878;4.382;2022-08-19T06:59:51;21.05;;;10.18;;
21337;SDS011;10827;50.878;4.382;2022-08-19T07:02:17;21.02;;;10.40;;
21337;SDS011;10827;50.878;4.382;2022-08-19T07:04:44;22.35;;;10.50;;
21337;SDS011;10827;50.878;4.382;2022-08-19T07:07:12;15.13;;;9.23;;
21337;SDS011;10827;50.878;4.382;2022-08-19T07:09:40;19.55;;;8.60;;
21337;SDS011;10827;50.878;4.382;2022-08-19T07:12:08;14.93;;;9.77;;
21337;SDS011;10827;50.878;4.382;2022-08-19T07:14:36;20.33;;;9.18;;
21337;SDS011;10827;50.878;4.382;2022-08-19T07:17:04;20.83;;;9.18;;
21337;SDS011;10827;50.878;4.382;2022-08-19T07:19:32;21.98;;;9.30;;
21337;SDS011;10827;50.878;4.382;2022-08-19T07:22:00;15.05;;;9.63;;
21337;SDS011;10827;50.878;4.382;2022-08-19T07:24:28;18.25;;;9.23;;
21337;SDS011;10827;50.878;4.382;2022-08-19T07:26:55;17.15;;;9.48;;
21337;SDS011;10827;50.878;4.382;2022-08-19T07:29:25;17.13;;;8.95;;
21337;SDS011;10827;50.878;4.382;2022-08-19T07:31:52;18.80;;;9.43;;
21337;SDS011;10827;50.878;4.382;2022-08-19T07:34:21;17.05;;;8.48;;
21337;SDS011;10827;50.878;4.382;2022-08-19T07:36:47;17.77;;;9.00;;
21337;SDS011;10827;50.878;4.382;2022-08-19T07:39:23;17.02;;;8.88;;
21337;SDS011;10827;50.878;4.382;2022-08-19T07:41:54;14.32;;;7.35;;
21337;SDS011;10827;50.878;4.382;2022-08-19T07:44:22;13.93;;;7.65;;
21337;SDS011;10827;50.878;4.382;2022-08-19T07:46:52;13.07;;;6.50;;
21337;SDS011;10827;50.878;4.382;2022-08-19T07:49:21;17.60;;;8.07;;
21337;SDS011;10827;50.878;4.382;2022-08-19T07:51:49;6.63;;;4.13;;
21337;SDS011;10827;50.878;4.382;2022-08-19T07:54:24;19.23;;;8.38;;
21337;SDS011;10827;50.878;4.382;2022-08-19T07:56:52;12.23;;;6.80;;
21337;SDS011;10827;50.878;4.382;2022-08-19T07:59:18;13.25;;;6.40;;
21337;SDS011;10827;50.878;4.382;2022-08-19T08:01:46;14.23;;;7.85;;
21337;SDS011;10827;50.878;4.382;2022-08-19T08:04:13;14.18;;;7.38;;
21337;SDS011;10827;50.878;4.382;2022-08-19T08:06:57;13.93;;;7.45;;
21337;SDS011;10827;50.878;4.382;2022-08-19T08:09:42;14.93;;;8.80;;
21337;SDS011;10827;50.878;4.382;2022-08-19T08:12:10;13.95;;;8.05;;
21337;SDS011;10827;50.878;4.382;2022-08-19T08:14:45;18.23;;;8.60;;
21337;SDS011;10827;50.878;4.382;2022-08-19T08:17:12;11.05;;;7.38;;
21337;SDS011;10827;50.878;4.382;2022-08-19T08:19:44;13.38;;;7.47;;
21337;SDS011;10827;50.878;4.382;2022-08-19T08:22:10;17.00;;;8.00;;
21337;SDS011;10827;50.878;4.382;2022-08-19T08:25:00;12.13;;;6.03;;
21337;SDS011;10827;50.878;4.382;2022-08-19T08:27:28;11.43;;;5.57;;
21337;SDS011;10827;50.878;4.382;2022-08-19T08:29:56;12.27;;;7.55;;
21337;SDS011;10827;50.878;4.382;2022-08-19T08:32:22;10.30;;;6.85;;
21337;SDS011;10827;50.878;4.382;2022-08-19T08:34:48;13.23;;;7.30;;
21337;SDS011;10827;50.878;4.382;2022-08-19T08:37:14;14.55;;;7.32;;
21337;SDS011;10827;50.878;4.382;2022-08-19T08:39:39;12.05;;;6.38;;
21337;SDS011;10827;50.878;4.382;2022-08-19T08:42:16;11.75;;;6.13;;
21337;SDS011;10827;50.878;4.382;2022-08-19T08:47:34;11.27;;;6.50;;
21337;SDS011;10827;50.878;4.382;2022-08-19T08:50:16;14.40;;;6.35;;
21337;SDS011;10827;50.878;4.382;2022-08-19T08:52:47;12.32;;;7.18;;
21337;SDS011;10827;50.878;4.382;2022-08-19T08:55:24;15.02;;;7.25;;
21337;SDS011;10827;50.878;4.382;2022-08-19T09:00:27;14.80;;;6.75;;
21337;SDS011;10827;50.878;4.382;2022-08-19T09:02:56;11.35;;;6.70;;
21337;SDS011;10827;50.878;4.382;2022-08-19T09:05:26;15.60;;;7.22;;
21337;SDS011;10827;50.878;4.382;2022-08-19T09:08:10;13.32;;;6.65;;
21337;SDS011;10827;50.878;4.382;2022-08-19T09:10:49;12.82;;;6.55;;
21337;SDS011;10827;50.878;4.382;2022-08-19T09:13:25;12.13;;;6.45;;
21337;SDS011;10827;50.878;4.382;2022-08-19T09:16:23;12.55;;;6.20;;
21337;SDS011;10827;50.878;4.382;2022-08-19T09:18:53;15.05;;;7.60;;
21337;SDS011;10827;50.878;4.382;2022-08-19T09:21:23;13.32;;;6.78;;
21337;SDS011;10827;50.878;4.382;2022-08-19T09:23:50;10.50;;;6.50;;
21337;SDS011;10827;50.878;4.382;2022-08-19T09:26:18;10.68;;;5.82;;
21337;SDS011;10827;50.878;4.382;2022-08-19T09:28:46;12.13;;;6.60;;
21337;SDS011;10827;50.878;4.382;2022-08-19T09:31:20;18.80;;;7.03;;
21337;SDS011;10827;50.878;4.382;2022-08-19T09:33:48;17.13;;;6.93;;
21337;SDS011;10827;50.878;4.382;2022-08-19T09:36:15;11.73;;;6.60;;
21337;SDS011;10827;50.878;4.382;2022-08-19T09:38:43;11.50;;;6.68;;
21337;SDS011;10827;50.878;4.382;2022-08-19T09:41:14;12.30;;;5.88;;
21337;SDS011;10827;50.878;4.382;2022-08-19T09:43:43;9.82;;;6.10;;
21337;SDS011;10827;50.878;4.382;2022-08-19T09:46:11;15.50;;;5.90;;
21337;SDS011;10827;50.878;4.382;2022-08-19T09:48:37;10.45;;;6.00;;
21337;SDS011;10827;50.878;4.382;2022-08-19T09:51:09;10.77;;;6.45;;
21337;SDS011;10827;50.878;4.382;2022-08-19T09:53:40;13.50;;;6.18;;
21337;SDS011;10827;50.878;4.382;2022-08-19T09:56:07;10.45;;;6.30;;
21337;SDS011;10827;50.878;4.382;2022-08-19T09:58:33;11.07;;;6.15;;
21337;SDS011;10827;50.878;4.382;2022-08-19T10:01:00;12.88;;;6.40;;
21337;SDS011;10827;50.878;4.382;2022-08-19T10:03:28;10.45;;;6.00;;
21337;SDS011;10827;50.878;4.382;2022-08-19T10:05:54;11.35;;;5.75;;
21337;SDS011;10827;50.878;4.382;2022-08-19T10:08:22;9.93;;;5.82;;
21337;SDS011;10827;50.878;4.382;2022-08-19T10:10:54;11.00;;;5.65;;
21337;SDS011;10827;50.878;4.382;2022-08-19T10:13:22;7.80;;;5.28;;
21337;SDS011;10827;50.878;4.382;2022-08-19T10:15:55;7.35;;;5.15;;
21337;SDS011;10827;50.878;4.382;2022-08-19T10:18:22;7.45;;;5.03;;
21337;SDS011;10827;50.878;4.382;2022-08-19T10:20:50;10.13;;;5.90;;
21337;SDS011;10827;50.878;4.382;2022-08-19T10:23:19;9.27;;;4.47;;
21337;SDS011;10827;50.878;4.382;2022-08-19T10:25:46;6.53;;;4.80;;
21337;SDS011;10827;50.878;4.382;2022-08-19T10:28:12;8.48;;;5.15;;
21337;SDS011;10827;50.878;4.382;2022-08-19T10:30:39;11.18;;;6.00;;
21337;SDS011;10827;50.878;4.382;2022-08-19T10:33:06;11.23;;;5.93;;
21337;SDS011;10827;50.878;4.382;2022-08-19T10:35:32;9.10;;;5.20;;
21337;SDS011;10827;50.878;4.382;2022-08-19T10:37:58;7.60;;;4.95;;
21337;SDS011;10827;50.878;4.382;2022-08-19T10:40:24;9.73;;;6.03;;
21337;SDS011;10827;50.878;4.382;2022-08-19T10:42:51;13.02;;;6.13;;
21337;SDS011;10827;50.878;4.382;2022-08-19T10:45:18;13.98;;;5.60;;
21337;SDS011;10827;50.878;4.382;2022-08-19T10:47:44;12.18;;;5.90;;
21337;SDS011;10827;50.878;4.382;2022-08-19T10:50:09;9.35;;;6.50;;
21337;SDS011;10827;50.878;4.382;2022-08-19T10:52:54;8.88;;;6.55;;
21337;SDS011;10827;50.878;4.382;2022-08-19T10:55:21;16.58;;;6.38;;
21337;SDS011;10827;50.878;4.382;2022-08-19T10:58:14;11.70;;;6.32;;
21337;SDS011;10827;50.878;4.382;2022-08-19T11:00:42;10.55;;;6.10;;
21337;SDS011;10827;50.878;4.382;2022-08-19T11:03:08;10.60;;;5.93;;
21337;SDS011;10827;50.878;4.382;2022-08-19T11:05:34;13.30;;;6.60;;
21337;SDS011;10827;50.878;4.382;2022-08-19T11:08:02;9.65;;;6.35;;
21337;SDS011;10827;50.878;4.382;2022-08-19T11:10:28;9.05;;;6.15;;
21337;SDS011;10827;50.878;4.382;2022-08-19T11:12:54;9.68;;;5.72;;
21337;SDS011;10827;50.878;4.382;2022-08-19T11:15:20;11.13;;;6.10;;
21337;SDS011;10827;50.878;4.382;2022-08-19T11:17:46;10.27;;;6.32;;
21337;SDS011;10827;50.878;4.382;2022-08-19T11:20:13;13.25;;;6.75;;
21337;SDS011;10827;50.878;4.382;2022-08-19T11:22:40;10.30;;;7.05;;
21337;SDS011;10827;50.878;4.382;2022-08-19T11:25:07;10.15;;;6.47;;
21337;SDS011;10827;50.878;4.382;2022-08-19T11:27:36;11.07;;;6.43;;
21337;SDS011;10827;50.878;4.382;2022-08-19T11:30:04;9.98;;;6.03;;
21337;SDS011;10827;50.878;4.382;2022-08-19T11:32:32;8.50;;;5.57;;
21337;SDS011;10827;50.878;4.382;2022-08-19T11:34:58;10.32;;;6.47;;
21337;SDS011;10827;50.878;4.382;2022-08-19T11:37:24;11.90;;;5.65;;
21337;SDS011;10827;50.878;4.382;2022-08-19T11:39:50;7.75;;;5.88;;
21337;SDS011;10827;50.878;4.382;2022-08-19T11:42:15;7.80;;;5.85;;
21337;SDS011;10827;50.878;4.382;2022-08-19T11:45:01;13.07;;;8.23;;
21337;SDS011;10827;50.878;4.382;2022-08-19T11:47:29;16.83;;;9.98;;
21337;SDS011;10827;50.878;4.382;2022-08-19T11:49:55;14.90;;;10.32;;
21337;SDS011;10827;50.878;4.382;2022-08-19T11:52:21;12.88;;;9.60;;
21337;SDS011;10827;50.878;4.382;2022-08-19T11:54:47;13.43;;;9.70;;
21337;SDS011;10827;50.878;4.382;2022-08-19T11:57:13;15.70;;;10.80;;
21337;SDS011;10827;50.878;4.382;2022-08-19T11:59:41;15.73;;;9.35;;
21337;SDS011;10827;50.878;4.382;2022-08-19T12:02:12;12.43;;;9.10;;
21337;SDS011;10827;50.878;4.382;2022-08-19T12:04:40;14.50;;;9.18;;
21337;SDS011;10827;50.878;4.382;2022-08-19T12:07:06;15.77;;;9.05;;
21337;SDS011;10827;50.878;4.382;2022-08-19T12:09:32;16.98;;;9.70;;
21337;SDS011;10827;50.878;4.382;2022-08-19T12:11:59;14.65;;;8.48;;
21337;SDS011;10827;50.878;4.382;2022-08-19T12:14:26;14.82;;;8.50;;
21337;SDS011;10827;50.878;4.382;2022-08-19T12:16:55;15.55;;;8.52;;
21337;SDS011;10827;50.878;4.382;2022-08-19T12:19:20;10.82;;;7.05;;
21337;SDS011;10827;50.878;4.382;2022-08-19T12:21:46;9.32;;;7.07;;
21337;SDS011;10827;50.878;4.382;2022-08-19T12:24:12;10.52;;;6.80;;
21337;SDS011;10827;50.878;4.382;2022-08-19T12:26:39;10.05;;;6.80;;
21337;SDS011;10827;50.878;4.382;2022-08-19T12:29:05;12.40;;;7.10;;
21337;SDS011;10827;50.878;4.382;2022-08-19T12:31:33;9.20;;;6.80;;
21337;SDS011;10827;50.878;4.382;2022-08-19T12:33:59;9.98;;;6.78;;
21337;SDS011;10827;50.878;4.382;2022-08-19T12:36:26;9.95;;;6.03;;
21337;SDS011;10827;50.878;4.382;2022-08-19T12:38:52;8.88;;;5.72;;
21337;SDS011;10827;50.878;4.382;2022-08-19T12:41:18;6.97;;;5.18;;
21337;SDS011;10827;50.878;4.382;2022-08-19T12:43:47;10.48;;;6.15;;
21337;SDS011;10827;50.878;4.382;2022-08-19T12:46:15;7.88;;;4.68;;
21337;SDS011;10827;50.878;4.382;2022-08-19T12:48:41;7.13;;;3.88;;
21337;SDS011;10827;50.878;4.382;2022-08-19T12:51:10;4.93;;;3.80;;
21337;SDS011;10827;50.878;4.382;2022-08-19T12:53:38;5.53;;;4.45;;
21337;SDS011;10827;50.878;4.382;2022-08-19T12:56:05;6.35;;;4.00;;
21337;SDS011;10827;50.878;4.382;2022-08-19T12:58:31;7.57;;;4.32;;
21337;SDS011;10827;50.878;4.382;2022-08-19T13:01:10;9.10;;;4.13;;
21337;SDS011;10827;50.878;4.382;2022-08-19T13:03:38;4.82;;;3.60;;
21337;SDS011;10827;50.878;4.382;2022-08-19T13:06:05;4.65;;;3.67;;
21337;SDS011;10827;50.878;4.382;2022-08-19T13:08:31;4.97;;;3.80;;
21337;SDS011;10827;50.878;4.382;2022-08-19T13:10:57;9.27;;;3.40;;
21337;SDS011;10827;50.878;4.382;2022-08-19T13:13:23;7.53;;;3.60;;
21337;SDS011;10827;50.878;4.382;2022-08-19T13:15:50;3.45;;;3.15;;
21337;SDS011;10827;50.878;4.382;2022-08-19T13:18:16;7.43;;;3.60;;
21337;SDS011;10827;50.878;4.382;2022-08-19T13:20:42;3.67;;;3.20;;
21337;SDS011;10827;50.878;4.382;2022-08-19T13:23:08;4.60;;;3.72;;
21337;SDS011;10827;50.878;4.382;2022-08-19T13:25:34;6.32;;;3.60;;
21337;SDS011;10827;50.878;4.382;2022-08-19T13:28:01;6.70;;;3.45;;
21337;SDS011;10827;50.878;4.382;2022-08-19T13:30:27;5.88;;;5.03;;
21337;SDS011;10827;50.878;4.382;2022-08-19T13:33:11;6.00;;;3.45;;
21337;SDS011;10827;50.878;4.382;2022-08-19T13:35:43;4.70;;;3.47;;
21337;SDS011;10827;50.878;4.382;2022-08-19T13:38:15;3.53;;;2.80;;
21337;SDS011;10827;50.878;4.382;2022-08-19T13:40:46;3.25;;;2.80;;
21337;SDS011;10827;50.878;4.382;2022-08-19T13:43:14;3.80;;;2.55;;
21337;SDS011;10827;50.878;4.382;2022-08-19T13:45:43;3.47;;;2.45;;
21337;SDS011;10827;50.878;4.382;2022-08-19T13:48:10;6.38;;;3.42;;
21337;SDS011;10827;50.878;4.382;2022-08-19T13:50:40;7.88;;;2.70;;
21337;SDS011;10827;50.878;4.382;2022-08-19T13:53:08;3.95;;;3.22;;
21337;SDS011;10827;50.878;4.382;2022-08-19T13:55:37;3.50;;;2.80;;
21337;SDS011;10827;50.878;4.382;2022-08-19T13:58:03;6.18;;;3.45;;
21337;SDS011;10827;50.878;4.382;2022-08-19T14:00:31;5.70;;;3.22;;
21337;SDS011;10827;50.878;4.382;2022-08-19T14:03:00;4.80;;;3.47;;
21337;SDS011;10827;50.878;4.382;2022-08-19T14:05:27;4.15;;;3.33;;
21337;SDS011;10827;50.878;4.382;2022-08-19T14:07:54;5.57;;;3.53;;
21337;SDS011;10827;50.878;4.382;2022-08-19T14:10:21;7.53;;;4.03;;
21337;SDS011;10827;50.878;4.382;2022-08-19T14:12:48;8.60;;;3.63;;
21337;SDS011;10827;50.878;4.382;2022-08-19T14:15:14;5.93;;;3.40;;
21337;SDS011;10827;50.878;4.382;2022-08-19T14:17:41;6.05;;;3.55;;
21337;SDS011;10827;50.878;4.382;2022-08-19T14:20:10;10.85;;;3.10;;
21337;SDS011;10827;50.878;4.382;2022-08-19T14:22:38;7.30;;;3.50;;
21337;SDS011;10827;50.878;4.382;2022-08-19T14:25:06;4.57;;;2.90;;
21337;SDS011;10827;50.878;4.382;2022-08-19T14:27:34;4.75;;;3.80;;
21337;SDS011;10827;50.878;4.382;2022-08-19T14:30:05;5.32;;;3.67;;
21337;SDS011;10827;50.878;4.382;2022-08-19T14:32:32;6.38;;;4.20;;
21337;SDS011;10827;50.878;4.382;2022-08-19T14:34:59;4.82;;;3.80;;
21337;SDS011;10827;50.878;4.382;2022-08-19T14:37:25;8.90;;;4.20;;
21337;SDS011;10827;50.878;4.382;2022-08-19T14:39:51;6.22;;;3.20;;
21337;SDS011;10827;50.878;4.382;2022-08-19T14:42:18;5.57;;;2.55;;
21337;SDS011;10827;50.878;4.382;2022-08-19T14:44:44;5.18;;;2.70;;
21337;SDS011;10827;50.878;4.382;2022-08-19T14:47:10;5.25;;;2.80;;